GOOYGOSS

Guest
Details From GOOY - Dakar Leopold Sedar Senghor Intl
To GOSS - SAINT LOUIS
Flight Number -
Tags generated
Created
Modified
Stats Distance 99 nm / 184 km
Max Altitude 5,500 ft / 1,676 m
Waypoints 4
Social Downloads 0
Likes 0
Share VATSIM

Download

Looking for another format? Having issues loading an existing format? Contact us
Advertisement - Login to hide

Notes

Basic altitude profile: - Ascent Rate: 5000ft/min - Ascent Speed: 150kts - Cruise Altitude: 35000ft - Cruise Speed: 420kts - Descent Rate: 1500ft/min - Descent Speed: 250kts Options: - Use NATs: yes - Use PACOTS: yes - Use low airways: yes - Use high airways: no

Route

GOOY YF R975F SLO GOSS

ID Type Via Altitude Latitude Longitude Leg Dist Tot Dist Heading (true) Name
O GOOY APT - 0 ft / 0 m 14.73971˚ -17.49023˚ - 0 nm - Dakar Leopold Sedar Senghor Intl
YF VOR - 300 ft / 91 m 14.74483˚ -17.47478˚ 0 nm 0 nm 71° / 71° DAKAR VOR-DME
SLO NDB R975F (AWY-LO) 5,500 ft / 1,676 m 16.04908˚ -16.45714˚ 98 nm 98 nm 37° / 37° SAINT LOUIS NDB
O GOSS APT - 0 ft / 0 m 16.04831˚ -16.45965˚ 0 nm 99 nm 252° / 252° SAINT LOUIS

Altitude Profile

Advertisement - Login to hide

GOOY

Details ICAO GOOY (DKR)
Name Dakar Leopold Sedar Senghor Intl
Region Senegal
Timezone Africa/Dakar (UTC+0.0)
Stats Elevation 85 ft / 26 m (AMSL)
Location 14.739711° -17.490226°
Runways 2
Magnetic Variation 7.347° W

METAR

GOOY 142300Z 04010KT 8000 NSC 22/15 Q1016

Decode

TAF

TAF GOOY 141730Z 1418/1524 05012KT CAVOK= TAF GBYD 141730Z 1418/1524 03008KT CAVOK

Decode

Departure Runways

ID Width Length Bearing (true) Bearing (mag) Surface Threshold Offset Overrun Length
03 98 ft / 30 m 4,921 ft / 1,500 m 22.31° 29.66° Asphalt 0 ft / 0 m 98 ft / 30 m
18 148 ft / 45 m 11,511 ft / 3,509 m 172.57° 179.92° Asphalt 525 ft / 160 m 197 ft / 60 m
21 98 ft / 30 m 4,921 ft / 1,500 m 202.31° 209.66° Asphalt 0 ft / 0 m 1,590 ft / 485 m
36 148 ft / 45 m 11,511 ft / 3,509 m 352.57° 359.92° Asphalt 0 ft / 0 m 197 ft / 60 m

GOSS

Details ICAO GOSS (XLS)
Name SAINT LOUIS
Region Senegal
Timezone Africa/Dakar (UTC+0.0)
Stats Elevation 9 ft / 3 m (AMSL)
Location 16.048306° -16.459655°
Runways 2
Magnetic Variation 6.647° W

METAR

GOSS 142300Z 36004KT CAVOK 19/06 Q1016

Decode

TAF

TAF GOSS 141730Z 1418/1518 04012KT CAVOK

Decode

Destination Runways

ID Width Length Bearing (true) Bearing (mag) Surface Threshold Offset Overrun Length
01 125 ft / 38 m 4,325 ft / 1,318 m 4.26° 10.91° Dirt 0 ft / 0 m 0 ft / 0 m
18 100 ft / 30 m 6,261 ft / 1,908 m 172.61° 179.26° Asphalt 0 ft / 0 m 330 ft / 101 m
19 125 ft / 38 m 4,325 ft / 1,318 m 184.26° 190.91° Dirt 0 ft / 0 m 0 ft / 0 m
36 100 ft / 30 m 6,261 ft / 1,908 m 352.61° 359.26° Asphalt 0 ft / 0 m 330 ft / 101 m

Popular Alternatives